Flight Track Log - Related Links

Times and Time Zones

All times are in EDT time to prevent confusion due to time zone crossing. See the SKW6335 flight status page for this flight to view local times or setup timezone preferences in your user account.

Time Position Orientation Groundspeed Altitude Reporting Facility
EDT Latitude Longitude Course Direction KTS MPH feet Rate Location/Type
Tue 05:47:41 PM 33.9333 -118.4333 140° Southeast 145 167 1,700  Level Southern California TRACON
Tue 05:48:35 PM 33.9000 -118.4500 203° Southwest 174 200 3,100 1,250 Climbing Southern California TRACON
Tue 05:49:41 PM 33.8333 -118.4500 180° South 212 244 4,200 1,097 Climbing Southern California TRACON
Tue 05:50:00 PM 33.7424 -118.2032 140° Southeast  Level Estimated
Tue 05:50:08 PM 33.8111 -118.4569 195° South 218 251 4,800  Level Los Angeles Center
Tue 05:51:00 PM 33.6756 -118.1351 139° Southeast  Level Estimated
Tue 05:51:10 PM 33.7483 -118.4542 178° South 229 264 6,000  Level Los Angeles Center
Tue 05:52:00 PM 33.6091 -118.0668 139° Southeast  Level FlightAware Approximate
Tue 05:52:12 PM 33.6964 -118.4111 145° Southeast 233 268 7,600  Level Los Angeles Center
Tue 05:53:00 PM 33.5625 -118.0191 140° Southeast  Level FlightAware Approximate
Tue 05:53:15 PM 33.6614 -118.3494 124° Southeast 232 267 9,000  Level Los Angeles Center
Tue 05:54:17 PM 33.6175 -118.2594 120° Southeast 254 292 9,000  Level Los Angeles Center
Tue 05:55:19 PM 33.5789 -118.1811 121° Southeast 271 312 9,000  Level Los Angeles Center
Tue 05:56:21 PM 33.5361 -118.1097 126° Southeast 268 308 9,000  Level Los Angeles Center
Tue 05:57:23 PM 33.4928 -118.0375 126° Southeast 267 307 9,000  Level Los Angeles Center
Tue 05:58:25 PM 33.4497 -117.9619 124° Southeast 273 314 9,000  Level Los Angeles Center
Tue 05:59:27 PM 33.3997 -117.8739 124° Southeast 268 308 9,000 -77 Level Los Angeles Center
Tue 05:59:43 PM 33.3833 -117.8500 129° Southeast 272 313 8,900  Descending Southern California TRACON
Tue 06:00:29 PM 33.3561 -117.8014 124° Southeast 269 310 9,000 56 Climbing Los Angeles Center
Tue 06:01:31 PM 33.3142 -117.7278 124° Southeast 268 308 9,000  Level Los Angeles Center
Tue 06:02:33 PM 33.2714 -117.6547 125° Southeast 269 310 9,000  Level Los Angeles Center
Tue 06:03:35 PM 33.2161 -117.5969 139° Southeast 265 305 9,000 -46 Level Los Angeles Center
Tue 06:04:44 PM 33.1333 -117.5333 147° Southeast 266 306 8,900  Descending Southern California TRACON
Tue 06:05:39 PM 33.0828 -117.4861 142° Southeast 265 305 9,000 -153 Climbing Los Angeles Center
Tue 06:06:42 PM 33.0225 -117.4336 144° Southeast 267 307 8,600 -768 Descending Los Angeles Center
Tue 06:07:44 PM 32.9567 -117.3764 144° Southeast 284 327 7,400 -774 Descending Los Angeles Center
Tue 06:08:46 PM 32.8947 -117.3111 138° Southeast 294 338 7,000 -250 Descending Los Angeles Center
Tue 06:09:44 PM 32.8500 -117.2333 124° Southeast 274 315 6,900  Descending Southern California TRACON
Tue 06:10:50 PM 32.7917 -117.1575 132° Southeast 268 308 7,000 -188 Climbing Los Angeles Center
Tue 06:11:52 PM 32.7617 -117.0836 116° Southeast 264 304 6,500 -835 Descending Los Angeles Center
Tue 06:12:45 PM 32.7500 -117.0000 99° East 254 292 5,400 -850 Descending Southern California TRACON
Tue 06:13:45 PM 32.7333 -116.9333 107° East 203 234 4,900 -298 Descending Southern California TRACON
Tue 06:14:46 PM 32.7000 -116.9000 140° Southeast 211 243 4,800 -597 Descending Southern California TRACON
Tue 06:16:46 PM 32.6833 -117.0167 260° West 175 201 3,100 -900 Descending Southern California TRACON
Tue 06:17:46 PM 32.7000 -117.0667 292° West 145 167 2,100 -1,000 Descending Southern California TRACON

Login

Don't have an account? Register now (free) for customized features, flight alerts, and more!